Time;durP1;ratioP1;P1;durP2;ratioP2;P2;SDS_P1;SDS_P2;PMS_P1;PMS_P2;Temp;Humidity;BMP_temperature;BMP_pressure;BME280_temperature;BME280_humidity;BME280_pressure;Samples;Min_cycle;Max_cycle;Signal;HPM_P1;HPM_P2
2023/12/11 00:00:06;;;;;;;;;;;;;;;9.89;89.46;99295.56;5134367;27;19963;-66
2023/12/11 00:03:17;;;;;;;;;;;;;;;9.96;89.35;99281.97;5134166;27;19941;-66
2023/12/11 00:06:37;;;;;;;;;;;;;;;9.89;89.78;99291.19;5134743;27;19968;-66
2023/12/11 00:09:47;;;;;;;;;;;;;;;9.83;90.18;99302.06;5134370;27;19968;-66
2023/12/11 00:12:56;;;;;;;;;;;;;;;9.91;89.83;99298.91;5133472;27;19934;-66
2023/12/11 00:16:20;;;;;;;;;;;;;;;9.87;89.75;99313.13;5134746;27;19963;-66
2023/12/11 00:19:32;;;;;;;;;;;;;;;9.93;89.36;99313.53;5134971;27;20331;-66
2023/12/11 00:22:39;;;;;;;;;;;;;;;10.00;88.76;99330.44;5134484;27;19984;-66
2023/12/11 00:25:56;;;;;;;;;;;;;;;10.05;88.65;99321.44;5134167;27;20412;-66
2023/12/11 00:29:13;;;;;;;;;;;;;;;10.06;88.55;99330.97;5134345;27;20420;-66
2023/12/11 00:32:25;;;;;;;;;;;;;;;10.05;88.70;99321.44;5133347;27;19940;-66
2023/12/11 00:35:43;;;;;;;;;;;;;;;10.09;88.43;99322.91;5134675;27;19970;-66
2023/12/11 00:39:03;;;;;;;;;;;;;;;10.13;88.41;99332.22;5134674;27;19934;-66
2023/12/11 00:42:19;;;;;;;;;;;;;;;10.12;88.11;99331.38;5134462;27;19994;-66
2023/12/11 00:45:35;;;;;;;;;;;;;;;10.18;88.22;99323.13;5134608;27;19918;-66
2023/12/11 00:48:54;;;;;;;;;;;;;;;10.18;87.78;99325.72;5134484;27;20030;-66
2023/12/11 00:52:01;;;;;;;;;;;;;;;10.18;87.73;99332.72;5134342;27;20358;-66
2023/12/11 00:55:27;;;;;;;;;;;;;;;10.16;87.94;99324.16;5134449;27;19922;-66
2023/12/11 00:58:40;;;;;;;;;;;;;;;10.16;87.76;99318.94;5134438;27;19954;-66
2023/12/11 01:01:58;;;;;;;;;;;;;;;10.13;87.84;99322.59;5134363;27;19918;-66
2023/12/11 01:05:08;;;;;;;;;;;;;;;10.14;87.97;99323.41;5134564;27;19921;-66
2023/12/11 01:08:30;;;;;;;;;;;;;;;10.18;87.09;99332.72;5134192;27;19918;-66
2023/12/11 01:11:55;;;;;;;;;;;;;;;10.18;87.49;99333.56;5134301;28;20380;-66
2023/12/11 01:15:09;;;;;;;;;;;;;;;10.17;87.03;99329.25;5133171;28;19956;-67
2023/12/11 01:18:23;;;;;;;;;;;;;;;10.20;87.04;99325.59;5133762;28;19918;-66
2023/12/11 01:21:34;;;;;;;;;;;;;;;10.16;87.13;99334.59;5133676;28;19918;-66
2023/12/11 01:24:51;;;;;;;;;;;;;;;10.19;86.53;99326.56;5136155;27;19918;-66
2023/12/11 01:28:09;;;;;;;;;;;;;;;10.15;86.83;99325.13;5138360;27;19957;-66
2023/12/11 01:31:25;;;;;;;;;;;;;;;10.14;86.38;99326.88;5137109;27;19937;-66
2023/12/11 01:34:31;;;;;;;;;;;;;;;10.16;85.94;99324.16;5137246;27;19963;-66
2023/12/11 01:37:36;;;;;;;;;;;;;;;10.11;85.35;99311.41;5137228;27;19964;-66
2023/12/11 01:40:42;;;;;;;;;;;;;;;10.08;85.36;99329.06;5137255;27;19918;-66
2023/12/11 01:43:57;;;;;;;;;;;;;;;10.03;85.41;99337.22;5124161;27;19918;-66
2023/12/11 01:47:03;;;;;;;;;;;;;;;10.05;84.80;99337.09;5124959;27;19977;-66
2023/12/11 01:50:20;;;;;;;;;;;;;;;10.00;84.59;99338.28;5136611;27;19922;-66
2023/12/11 01:53:36;;;;;;;;;;;;;;;9.90;85.23;99350.28;5136819;27;20332;-66
2023/12/11 01:56:53;;;;;;;;;;;;;;;9.93;84.74;99347.47;5137369;27;19918;-66
2023/12/11 02:00:05;;;;;;;;;;;;;;;9.87;85.34;99353.09;5137389;27;19940;-66
2023/12/11 02:03:21;;;;;;;;;;;;;;;9.85;85.47;99360.19;5137699;27;19918;-66
2023/12/11 02:06:32;;;;;;;;;;;;;;;9.85;86.03;99359.38;5137905;27;19922;-66
2023/12/11 02:09:39;;;;;;;;;;;;;;;9.93;85.80;99359.69;5137466;27;20294;-66
2023/12/11 02:12:57;;;;;;;;;;;;;;;9.90;86.10;99360.75;5137472;27;19918;-66
2023/12/11 02:16:14;;;;;;;;;;;;;;;9.93;86.00;99344.88;5137764;27;19918;-66
2023/12/11 02:19:29;;;;;;;;;;;;;;;10.00;85.91;99351.31;5137312;27;19984;-66
2023/12/11 02:22:50;;;;;;;;;;;;;;;9.85;86.73;99344.53;5136274;27;19956;-66
2023/12/11 02:26:14;;;;;;;;;;;;;;;9.78;87.30;99346.72;5136442;27;19918;-66
2023/12/11 02:29:27;;;;;;;;;;;;;;;9.82;86.88;99326.47;5136442;27;19922;-67
2023/12/11 02:32:39;;;;;;;;;;;;;;;9.89;86.21;99332.97;5116379;28;20014;-66
2023/12/11 02:35:59;;;;;;;;;;;;;;;9.93;85.69;99320.53;5116027;28;19919;-66
2023/12/11 02:39:20;;;;;;;;;;;;;;;9.93;85.63;99323.97;5116728;28;19965;-66
2023/12/11 02:42:37;;;;;;;;;;;;;;;9.88;86.05;99320.84;5116400;28;20390;-66
2023/12/11 02:46:02;;;;;;;;;;;;;;;9.86;86.13;99327.09;5116235;28;20341;-66
2023/12/11 02:49:24;;;;;;;;;;;;;;;9.88;85.66;99331.28;5115844;28;19926;-66
2023/12/11 02:52:49;;;;;;;;;;;;;;;9.91;85.17;99322.41;5103877;28;19954;-66
2023/12/11 02:56:05;;;;;;;;;;;;;;;10.04;83.51;99319.78;5115100;28;19918;-66
2023/12/11 02:59:28;;;;;;;;;;;;;;;10.01;83.52;99316.44;5116078;28;20382;-66
2023/12/11 03:02:43;;;;;;;;;;;;;;;10.02;82.38;99312.06;5115508;28;20299;-66
2023/12/11 03:05:49;;;;;;;;;;;;;;;9.95;82.90;99305.56;5115754;28;19918;-66
2023/12/11 03:08:59;;;;;;;;;;;;;;;10.00;81.98;99298.28;5115197;28;19923;-66
2023/12/11 03:12:25;;;;;;;;;;;;;;;10.02;81.17;99302.44;5115887;28;19980;-66
2023/12/11 03:15:39;;;;;;;;;;;;;;;10.05;80.18;99295.31;5102994;28;19918;-66
2023/12/11 03:19:03;;;;;;;;;;;;;;;10.00;80.21;99287.81;5115576;28;19957;-66
2023/12/11 03:22:17;;;;;;;;;;;;;;;10.02;79.98;99291.19;5115834;28;19919;-66
2023/12/11 03:25:35;;;;;;;;;;;;;;;10.03;80.07;99287.63;5115558;28;19919;-66
2023/12/11 03:28:52;;;;;;;;;;;;;;;9.99;80.09;99284.38;5115341;28;19918;-66
2023/12/11 03:32:07;;;;;;;;;;;;;;;9.97;80.48;99288.88;5130222;27;19925;-66
2023/12/11 03:35:27;;;;;;;;;;;;;;;9.98;80.71;99287.09;5135580;27;19918;-66
2023/12/11 03:38:41;;;;;;;;;;;;;;;10.05;80.24;99292.72;5135154;27;19958;-66
2023/12/11 03:41:48;;;;;;;;;;;;;;;10.09;80.25;99291.59;5134606;27;19922;-66
2023/12/11 03:45:05;;;;;;;;;;;;;;;10.09;80.12;99287.19;5135717;27;19919;-66
2023/12/11 03:48:28;;;;;;;;;;;;;;;10.04;81.12;99283.22;5135074;27;20011;-66
2023/12/11 03:51:48;;;;;;;;;;;;;;;10.06;80.75;99276.13;5135528;27;19967;-66
2023/12/11 03:55:11;;;;;;;;;;;;;;;10.01;81.13;99282.47;5135476;27;19918;-66
2023/12/11 03:58:22;;;;;;;;;;;;;;;10.07;80.35;99285.63;5135443;27;19963;-66
2023/12/11 04:01:40;;;;;;;;;;;;;;;10.05;80.59;99287.50;5135222;27;19964;-66
2023/12/11 04:04:52;;;;;;;;;;;;;;;10.09;79.10;99296.81;5122320;27;19918;-66
2023/12/11 04:08:04;;;;;;;;;;;;;;;10.10;79.23;99280.19;5135178;27;19917;-66
2023/12/11 04:11:28;;;;;;;;;;;;;;;10.07;78.66;99281.22;5135215;27;19921;-66
2023/12/11 04:14:43;;;;;;;;;;;;;;;10.10;78.54;99274.97;5135049;27;19919;-66
2023/12/11 04:18:00;;;;;;;;;;;;;;;10.13;78.04;99277.34;5135368;27;19918;-66
2023/12/11 04:21:10;;;;;;;;;;;;;;;10.14;77.80;99273.78;5134998;27;19922;-66
2023/12/11 04:24:18;;;;;;;;;;;;;;;10.17;77.65;99260.50;5134741;27;19919;-66
2023/12/11 04:27:22;;;;;;;;;;;;;;;10.05;78.61;99263.97;5134517;27;19918;-66
2023/12/11 04:30:36;;;;;;;;;;;;;;;10.07;78.82;99273.38;5134541;27;20443;-66
2023/12/11 04:33:45;;;;;;;;;;;;;;;10.10;78.72;99282.78;5134721;27;20366;-66
2023/12/11 04:37:08;;;;;;;;;;;;;;;10.09;79.10;99278.53;5134727;27;19973;-66
2023/12/11 04:40:22;;;;;;;;;;;;;;;10.13;78.89;99277.34;5134672;27;19918;-66
2023/12/11 04:43:33;;;;;;;;;;;;;;;10.05;79.79;99282.28;5134605;27;19917;-66
2023/12/11 04:46:45;;;;;;;;;;;;;;;10.04;80.21;99286.66;5134641;27;20008;-66
2023/12/11 04:49:54;;;;;;;;;;;;;;;10.07;80.07;99288.22;5134277;27;19956;-65
2023/12/11 04:53:01;;;;;;;;;;;;;;;10.08;80.46;99279.44;5134432;27;19922;-66
2023/12/11 04:56:16;;;;;;;;;;;;;;;10.02;80.75;99284.16;5134504;27;20032;-66
2023/12/11 04:59:29;;;;;;;;;;;;;;;10.11;80.60;99282.66;5133684;27;20075;-66
2023/12/11 05:02:41;;;;;;;;;;;;;;;10.13;80.76;99282.56;5134141;27;19919;-66
2023/12/11 05:05:51;;;;;;;;;;;;;;;10.11;81.12;99268.78;5134245;27;20022;-67
2023/12/11 05:09:16;;;;;;;;;;;;;;;9.99;81.88;99275.72;5134275;27;19918;-66
2023/12/11 05:12:32;;;;;;;;;;;;;;;10.10;81.51;99273.19;5134214;28;20036;-66
2023/12/11 05:15:59;;;;;;;;;;;;;;;10.09;81.44;99262.84;5134153;28;19918;-66
2023/12/11 05:19:21;;;;;;;;;;;;;;;10.04;82.20;99251.88;5121379;28;19922;-67
2023/12/11 05:22:38;;;;;;;;;;;;;;;10.02;82.04;99250.22;5134175;28;19917;-67
2023/12/11 05:25:54;;;;;;;;;;;;;;;10.05;82.34;99258.75;5122124;28;20386;-65
2023/12/11 05:29:18;;;;;;;;;;;;;;;10.05;81.90;99237.88;5133967;28;19934;-65
2023/12/11 05:32:38;;;;;;;;;;;;;;;9.98;82.38;99230.47;5132853;28;19923;-65
2023/12/11 05:36:00;;;;;;;;;;;;;;;9.96;82.87;99229.75;5134364;28;19956;-65
2023/12/11 05:39:25;;;;;;;;;;;;;;;9.90;82.86;99224.13;5134018;28;20390;-65
2023/12/11 05:42:43;;;;;;;;;;;;;;;9.91;82.45;99231.84;5133949;28;19918;-65
2023/12/11 05:45:50;;;;;;;;;;;;;;;9.97;82.02;99227.97;5133991;28;19925;-65
2023/12/11 05:49:10;;;;;;;;;;;;;;;9.98;81.27;99237.47;5133857;28;19961;-65
2023/12/11 05:52:34;;;;;;;;;;;;;;;10.00;81.04;99231.19;5133926;28;20006;-65
2023/12/11 05:55:51;;;;;;;;;;;;;;;9.96;80.68;99237.59;5133888;28;19968;-65
2023/12/11 05:58:58;;;;;;;;;;;;;;;10.07;79.50;99238.59;5133808;28;19980;-65
2023/12/11 06:02:02;;;;;;;;;;;;;;;10.08;79.63;99235.03;5133843;28;20028;-65
2023/12/11 06:05:08;;;;;;;;;;;;;;;10.10;79.37;99233.16;5133739;28;20286;-66
2023/12/11 06:08:16;;;;;;;;;;;;;;;10.12;79.18;99246.97;5133935;28;20385;-66
2023/12/11 06:11:20;;;;;;;;;;;;;;;10.22;78.58;99243.59;5136670;27;19961;-66
2023/12/11 06:14:30;;;;;;;;;;;;;;;10.27;78.40;99248.50;5137423;27;19917;-67
2023/12/11 06:17:48;;;;;;;;;;;;;;;10.23;78.88;99245.25;5137028;27;20348;-66
2023/12/11 06:20:59;;;;;;;;;;;;;;;10.23;79.05;99213.06;5137359;27;19950;-65
2023/12/11 06:24:08;;;;;;;;;;;;;;;10.18;79.59;99204.75;5137194;27;20043;-64
2023/12/11 06:27:19;;;;;;;;;;;;;;;10.17;79.33;99195.22;5129110;27;20398;-65
2023/12/11 06:30:23;;;;;;;;;;;;;;;10.15;79.16;99189.28;5126627;27;20049;-66
2023/12/11 06:33:34;;;;;;;;;;;;;;;10.11;79.63;99174.75;5125332;27;19926;-70
2023/12/11 06:36:45;;;;;;;;;;;;;;;10.11;79.09;99169.53;5128304;27;19925;-67
2023/12/11 06:39:55;;;;;;;;;;;;;;;10.16;78.74;99176.09;5122113;27;19980;-67
2023/12/11 06:43:09;;;;;;;;;;;;;;;10.12;78.48;99177.28;5131699;27;19964;-66
2023/12/11 06:46:29;;;;;;;;;;;;;;;10.08;78.22;99173.19;5132290;27;20314;-66
2023/12/11 06:49:47;;;;;;;;;;;;;;;10.17;77.13;99156.88;5115665;28;19918;-65
2023/12/11 06:52:58;;;;;;;;;;;;;;;10.17;77.39;99174.31;5115797;28;19938;-67
2023/12/11 06:56:08;;;;;;;;;;;;;;;10.20;77.20;99166.25;5116102;28;19922;-66
2023/12/11 06:59:30;;;;;;;;;;;;;;;10.09;77.46;99176.66;5115993;28;19917;-66
2023/12/11 07:02:49;;;;;;;;;;;;;;;10.17;77.35;99176.94;5115774;28;19918;-67
2023/12/11 07:06:02;;;;;;;;;;;;;;;10.16;77.11;99183.09;5115295;28;19966;-67
2023/12/11 07:09:05;;;;;;;;;;;;;;;10.10;77.15;99178.31;5103096;28;19964;-67
2023/12/11 07:12:09;;;;;;;;;;;;;;;10.11;77.04;99167.75;5115478;28;20373;-67
2023/12/11 07:15:15;;;;;;;;;;;;;;;10.07;76.96;99178.53;5101056;28;19957;-67
2023/12/11 07:18:30;;;;;;;;;;;;;;;10.21;75.98;99186.19;5130713;27;19933;-67
2023/12/11 07:21:41;;;;;;;;;;;;;;;10.17;75.71;99182.97;5124814;27;19918;-66
2023/12/11 07:24:47;;;;;;;;;;;;;;;10.38;73.72;99193.72;5135201;27;20377;-66
2023/12/11 07:27:51;;;;;;;;;;;;;;;10.42;73.32;99196.94;5134882;27;20404;-66
2023/12/11 07:30:58;;;;;;;;;;;;;;;10.47;72.47;99186.97;5134691;27;20420;-66
2023/12/11 07:34:01;;;;;;;;;;;;;;;10.45;72.65;99184.47;5135162;27;19961;-66
2023/12/11 07:37:06;;;;;;;;;;;;;;;10.48;72.57;99192.09;5135444;27;19964;-67
2023/12/11 07:40:10;;;;;;;;;;;;;;;10.50;72.26;99198.97;5134888;27;19956;-67
2023/12/11 07:43:14;;;;;;;;;;;;;;;10.58;71.94;99178.34;5116758;27;20388;-67
2023/12/11 07:46:20;;;;;;;;;;;;;;;10.56;72.10;99182.84;5122645;27;20407;-67
2023/12/11 07:49:26;;;;;;;;;;;;;;;10.60;71.86;99181.69;5118405;27;19938;-67
2023/12/11 07:52:36;;;;;;;;;;;;;;;10.58;72.27;99162.66;5134317;27;19918;-67
2023/12/11 07:55:49;;;;;;;;;;;;;;;10.59;72.16;99172.16;5113804;28;19918;-67
2023/12/11 07:58:58;;;;;;;;;;;;;;;10.54;72.42;99187.38;5113006;28;20294;-67
2023/12/11 08:02:04;;;;;;;;;;;;;;;10.57;72.16;99189.75;5113103;28;19993;-67
2023/12/11 08:05:13;;;;;;;;;;;;;;;10.56;72.56;99182.84;5100830;28;20303;-67
2023/12/11 08:08:22;;;;;;;;;;;;;;;10.56;72.14;99190.69;5114339;27;20354;-67
2023/12/11 08:11:25;;;;;;;;;;;;;;;10.62;71.95;99209.34;5132925;27;19969;-67
2023/12/11 08:14:37;;;;;;;;;;;;;;;10.63;71.71;99197.97;5133440;27;19918;-66
2023/12/11 08:17:41;;;;;;;;;;;;;;;10.72;71.08;99188.63;5112467;28;20317;-67
2023/12/11 08:20:58;;;;;;;;;;;;;;;10.75;70.48;99184.94;5116249;27;20011;-67
2023/12/11 08:24:17;;;;;;;;;;;;;;;10.79;70.90;99195.06;5129456;27;20003;-67
2023/12/11 08:27:35;;;;;;;;;;;;;;;10.76;70.79;99203.13;5133372;27;19918;-67
2023/12/11 08:30:52;;;;;;;;;;;;;;;10.82;70.40;99202.69;5132906;27;20361;-67
2023/12/11 08:34:05;;;;;;;;;;;;;;;10.98;71.06;99209.38;5132731;27;20346;-64
2023/12/11 08:37:17;;;;;;;;;;;;;;;10.96;70.14;99213.88;5133500;27;19919;-67
2023/12/11 08:40:32;;;;;;;;;;;;;;;10.86;69.99;99205.91;5108020;27;20003;-65
2023/12/11 08:43:50;;;;;;;;;;;;;;;10.81;70.52;99214.06;5115771;27;19917;-67
2023/12/11 08:47:05;;;;;;;;;;;;;;;10.87;69.98;99197.91;5115764;27;19976;-67
2023/12/11 08:50:27;;;;;;;;;;;;;;;10.86;70.21;99214.56;5111112;27;20024;-67
2023/12/11 08:54:00;;;;;;;;;;;;;;;10.88;70.17;99214.44;5114202;27;19975;-67
2023/12/11 08:57:19;;;;;;;;;;;;;;;10.89;69.89;99229.22;5114372;27;20031;-68
2023/12/11 09:00:33;;;;;;;;;;;;;;;10.83;71.57;99224.44;5091920;28;20706;-68
2023/12/11 09:03:55;;;;;;;;;;;;;;;10.89;72.25;99214.34;5091731;28;19958;-67
2023/12/11 09:07:19;;;;;;;;;;;;;;;10.85;71.32;99228.59;5091912;28;19918;-67
2023/12/11 09:10:34;;;;;;;;;;;;;;;10.99;70.51;99214.50;5092031;28;20013;-69
2023/12/11 09:13:41;;;;;;;;;;;;;;;11.02;70.50;99214.25;5092073;28;19927;-67
2023/12/11 09:16:44;;;;;;;;;;;;;;;10.95;70.78;99231.38;5091951;28;19934;-67
2023/12/11 09:19:48;;;;;;;;;;;;;;;10.94;70.54;99214.00;5105872;28;19957;-67
2023/12/11 09:22:54;;;;;;;;;;;;;;;10.96;70.49;99216.50;5110736;28;20232;-67
2023/12/11 09:26:06;;;;;;;;;;;;;;;10.99;70.59;99234.59;5104067;28;19923;-67
2023/12/11 09:29:22;;;;;;;;;;;;;;;10.98;70.64;99219.84;5114654;28;20043;-67
2023/12/11 09:32:46;;;;;;;;;;;;;;;10.96;70.23;99238.25;5122630;28;19922;-67
2023/12/11 09:35:56;;;;;;;;;;;;;;;10.92;70.40;99232.44;5125318;28;19918;-67
2023/12/11 09:39:15;;;;;;;;;;;;;;;11.01;69.87;99217.84;5132432;28;19922;-67
2023/12/11 09:42:31;;;;;;;;;;;;;;;11.12;69.81;99236.16;5132759;28;19964;-67
2023/12/11 09:45:47;;;;;;;;;;;;;;;11.06;70.00;99234.00;5134232;27;20323;-67
2023/12/11 09:49:04;;;;;;;;;;;;;;;11.13;69.65;99243.06;5136956;27;19961;-68
2023/12/11 09:52:17;;;;;;;;;;;;;;;11.14;69.63;99236.88;5136527;27;19955;-69
2023/12/11 09:55:35;;;;;;;;;;;;;;;11.17;69.03;99241.06;5137108;27;20291;-71
2023/12/11 09:58:46;;;;;;;;;;;;;;;11.18;69.17;99230.47;5136523;27;20000;-70
2023/12/11 10:01:51;;;;;;;;;;;;;;;11.17;69.23;99254.16;5136528;27;19977;-70
2023/12/11 10:05:12;;;;;;;;;;;;;;;11.19;69.41;99239.16;5136596;27;19921;-70
2023/12/11 10:08:26;;;;;;;;;;;;;;;11.24;69.42;99239.66;5136220;27;20044;-70
2023/12/11 10:11:59;;;;;;;;;;;;;;;11.26;68.82;99240.34;5136481;27;19922;-70
2023/12/11 10:15:26;;;;;;;;;;;;;;;11.35;68.49;99244.06;5136613;27;19926;-68
2023/12/11 10:19:00;;;;;;;;;;;;;;;11.30;68.64;99254.88;5136592;27;19923;-66
2023/12/11 10:22:27;;;;;;;;;;;;;;;11.27;68.62;99252.50;5136244;27;19918;-69
2023/12/11 10:25:36;;;;;;;;;;;;;;;11.31;68.44;99260.94;5136146;27;19972;-69
2023/12/11 10:28:42;;;;;;;;;;;;;;;11.38;68.41;99251.69;5126636;27;20044;-69
2023/12/11 10:31:56;;;;;;;;;;;;;;;11.37;68.39;99240.38;5128614;27;19965;-69
2023/12/11 10:35:05;;;;;;;;;;;;;;;11.41;68.09;99259.28;5135711;27;19998;-69
2023/12/11 10:38:49;;;;;;;;;;;;;;;11.39;68.74;99264.66;5135406;27;19955;-69
2023/12/11 10:41:58;;;;;;;;;;;;;;;11.36;67.92;99254.44;5135336;27;19926;-69
2023/12/11 10:45:14;;;;;;;;;;;;;;;11.42;68.12;99263.56;5134963;27;20444;-68
2023/12/11 10:48:35;;;;;;;;;;;;;;;11.45;67.85;99275.59;5134439;27;19955;-69
2023/12/11 10:51:52;;;;;;;;;;;;;;;11.47;68.01;99265.84;5135309;27;20056;-69
2023/12/11 10:55:06;;;;;;;;;;;;;;;11.44;67.83;99261.69;5129281;27;19934;-69
2023/12/11 10:58:20;;;;;;;;;;;;;;;11.45;67.86;99265.13;5126358;27;20287;-68
2023/12/11 11:01:32;;;;;;;;;;;;;;;11.51;67.40;99272.53;5128007;27;20271;-68
2023/12/11 11:04:50;;;;;;;;;;;;;;;11.47;66.75;99261.44;5125809;27;19971;-68
2023/12/11 11:08:04;;;;;;;;;;;;;;;11.48;66.93;99277.97;5133121;27;20025;-69
2023/12/11 11:11:32;;;;;;;;;;;;;;;11.53;67.36;99266.22;5135357;27;19972;-68
2023/12/11 11:14:48;;;;;;;;;;;;;;;11.60;65.84;99269.19;5135051;27;20025;-68
2023/12/11 11:18:09;;;;;;;;;;;;;;;11.60;65.50;99275.25;5135480;27;19945;-69
2023/12/11 11:21:20;;;;;;;;;;;;;;;11.60;65.50;99282.28;5135146;27;20286;-68
2023/12/11 11:24:35;;;;;;;;;;;;;;;11.63;65.54;99277.66;5135216;27;20294;-68
2023/12/11 11:27:46;;;;;;;;;;;;;;;11.68;65.08;99276.47;5134683;27;20423;-69
2023/12/11 11:30:57;;;;;;;;;;;;;;;11.65;65.09;99280.16;5134140;27;19922;-69
2023/12/11 11:34:14;;;;;;;;;;;;;;;11.60;64.68;99283.13;5134951;27;19968;-68
2023/12/11 11:37:50;;;;;;;;;;;;;;;11.64;64.63;99281.09;5131965;27;20266;-68
2023/12/11 11:41:07;;;;;;;;;;;;;;;11.61;63.65;99278.72;5120592;27;19999;-68
2023/12/11 11:44:32;;;;;;;;;;;;;;;11.63;62.62;99297.78;5129629;27;19933;-68
2023/12/11 11:47:56;;;;;;;;;;;;;;;11.61;62.05;99287.44;5134731;27;19982;-68
2023/12/11 11:51:18;;;;;;;;;;;;;;;11.65;62.05;99288.03;5134508;27;19957;-68
2023/12/11 11:54:37;;;;;;;;;;;;;;;11.66;62.61;99284.44;5134291;27;19926;-68
2023/12/11 11:57:58;;;;;;;;;;;;;;;11.62;62.48;99294.31;5134548;27;19964;-68
2023/12/11 12:01:07;;;;;;;;;;;;;;;11.60;62.94;99290.16;5134453;27;20342;-68
2023/12/11 12:04:32;;;;;;;;;;;;;;;11.61;62.03;99294.41;5134198;27;19918;-69
2023/12/11 12:08:00;;;;;;;;;;;;;;;11.59;62.05;99309.44;5133782;27;19995;-68
2023/12/11 12:11:23;;;;;;;;;;;;;;;11.53;61.76;99313.34;5134252;27;19944;-68
2023/12/11 12:14:47;;;;;;;;;;;;;;;11.54;61.85;99301.09;5134086;27;19921;-68
2023/12/11 12:18:12;;;;;;;;;;;;;;;11.56;62.06;99322.75;5134077;27;20346;-68
2023/12/11 12:21:29;;;;;;;;;;;;;;;11.50;61.77;99333.69;5133934;27;19937;-69
2023/12/11 12:24:53;;;;;;;;;;;;;;;11.50;61.89;99339.75;5134047;27;19918;-68
2023/12/11 12:28:21;;;;;;;;;;;;;;;11.47;61.38;99320.81;5133828;27;19963;-68
2023/12/11 12:31:38;;;;;;;;;;;;;;;11.46;61.88;99329.63;5133813;27;19922;-68
2023/12/11 12:34:51;;;;;;;;;;;;;;;11.48;61.96;99340.81;5133739;27;19918;-68
2023/12/11 12:37:56;;;;;;;;;;;;;;;11.41;62.70;99350.91;5133960;27;20033;-68
2023/12/11 12:41:11;;;;;;;;;;;;;;;11.46;63.16;99350.56;5126241;27;19926;-69
2023/12/11 12:44:24;;;;;;;;;;;;;;;11.37;63.86;99355.53;5125456;27;19918;-70
2023/12/11 12:47:33;;;;;;;;;;;;;;;11.23;64.69;99360.97;5133590;27;20381;-68
2023/12/11 12:50:40;;;;;;;;;;;;;;;11.18;65.53;99355.22;5133419;27;19927;-68
2023/12/11 12:53:46;;;;;;;;;;;;;;;11.14;66.70;99375.53;5133267;27;19918;-68
2023/12/11 12:56:58;;;;;;;;;;;;;;;10.97;66.82;99378.53;5133342;27;19919;-68
2023/12/11 13:00:20;;;;;;;;;;;;;;;10.92;67.22;99381.50;5133305;27;19921;-68
2023/12/11 13:03:30;;;;;;;;;;;;;;;10.93;67.65;99384.94;5133366;27;20020;-68
2023/12/11 13:06:45;;;;;;;;;;;;;;;10.90;67.98;99391.22;5133203;27;20021;-68
2023/12/11 13:09:57;;;;;;;;;;;;;;;10.97;68.58;99390.78;5132982;27;19922;-68
2023/12/11 13:13:14;;;;;;;;;;;;;;;10.90;68.24;99375.53;5133294;27;20005;-68
2023/12/11 13:16:26;;;;;;;;;;;;;;;10.98;67.14;99382.00;5133090;28;19958;-68
2023/12/11 13:19:50;;;;;;;;;;;;;;;11.03;67.63;99393.78;5133230;27;19956;-68
2023/12/11 13:23:10;;;;;;;;;;;;;;;10.91;68.26;99384.19;5137437;27;19972;-69
2023/12/11 13:26:16;;;;;;;;;;;;;;;10.85;68.80;99385.50;5137385;27;19922;-69
2023/12/11 13:29:38;;;;;;;;;;;;;;;10.92;68.67;99389.34;5137291;27;19938;-68
2023/12/11 13:32:51;;;;;;;;;;;;;;;10.94;67.71;99399.69;5136141;27;20026;-69
2023/12/11 13:36:06;;;;;;;;;;;;;;;11.06;66.98;99398.81;5137583;27;19922;-69
2023/12/11 13:39:29;;;;;;;;;;;;;;;11.03;66.53;99398.19;5137122;27;20018;-69
2023/12/11 13:42:42;;;;;;;;;;;;;;;11.04;66.93;99402.47;5137162;27;20415;-69
2023/12/11 13:46:03;;;;;;;;;;;;;;;10.94;66.67;99397.91;5137093;27;19918;-69
2023/12/11 13:49:29;;;;;;;;;;;;;;;10.97;66.50;99411.72;5136920;27;19921;-68
2023/12/11 13:52:59;;;;;;;;;;;;;;;10.94;66.52;99416.22;5136919;27;19918;-69
2023/12/11 13:56:20;;;;;;;;;;;;;;;10.95;66.41;99422.28;5137132;27;19919;-69
2023/12/11 13:59:46;;;;;;;;;;;;;;;10.99;66.21;99428.13;5136682;27;19976;-69
2023/12/11 14:03:08;;;;;;;;;;;;;;;11.00;65.54;99437.66;5136961;27;19918;-69
2023/12/11 14:06:20;;;;;;;;;;;;;;;11.00;65.28;99433.25;5136583;27;19973;-69
2023/12/11 14:09:30;;;;;;;;;;;;;;;11.01;65.12;99447.16;5136568;27;19922;-69
2023/12/11 14:16:55;;;;;;;;;;;;;;;11.11;64.30;99450.81;4992265;28;20640;-70
2023/12/11 14:20:04;;;;;;;;;;;;;;;11.09;64.38;99450.91;5015936;28;20278;-70
2023/12/11 14:23:13;;;;;;;;;;;;;;;11.12;64.29;99455.09;5015465;28;20270;-70
2023/12/11 14:26:20;;;;;;;;;;;;;;;11.09;64.09;99460.53;5015134;28;19968;-69
2023/12/11 14:29:24;;;;;;;;;;;;;;;11.06;63.94;99455.53;5014038;28;20400;-69
2023/12/11 14:32:36;;;;;;;;;;;;;;;11.08;63.76;99462.31;5013936;28;20305;-69
2023/12/11 14:35:42;;;;;;;;;;;;;;;11.09;63.50;99477.06;5014238;28;19984;-69
2023/12/11 14:38:49;;;;;;;;;;;;;;;11.03;63.52;99479.28;5014780;28;19948;-69
2023/12/11 14:41:53;;;;;;;;;;;;;;;11.04;62.72;99483.56;5014868;28;19920;-69
2023/12/11 14:45:01;;;;;;;;;;;;;;;11.05;62.27;99486.09;5013213;28;20292;-69
2023/12/11 14:48:11;;;;;;;;;;;;;;;11.03;62.24;99497.59;5014225;28;19924;-69
2023/12/11 14:51:25;;;;;;;;;;;;;;;10.98;62.23;99499.72;5014604;28;19924;-69
2023/12/11 14:54:39;;;;;;;;;;;;;;;11.02;61.47;99498.53;5014801;28;19920;-69
2023/12/11 14:58:00;;;;;;;;;;;;;;;10.99;61.26;99496.16;5014692;28;19991;-68
2023/12/11 15:01:07;;;;;;;;;;;;;;;10.94;60.72;99506.91;5013269;28;20401;-69
2023/12/11 15:04:10;;;;;;;;;;;;;;;10.96;60.97;99512.06;5013866;28;19929;-69
2023/12/11 15:07:13;;;;;;;;;;;;;;;10.96;60.91;99506.81;5014433;28;20284;-69
2023/12/11 15:10:16;;;;;;;;;;;;;;;10.97;61.13;99513.72;5013384;28;20162;-70
2023/12/11 15:13:20;;;;;;;;;;;;;;;10.95;61.64;99511.22;5014175;28;19960;-70
2023/12/11 15:16:24;;;;;;;;;;;;;;;10.93;61.61;99507.88;5033813;28;19963;-71
2023/12/11 15:19:27;;;;;;;;;;;;;;;10.93;62.04;99516.53;5033638;28;19971;-70
2023/12/11 15:22:31;;;;;;;;;;;;;;;11.12;62.76;99533.56;5034077;28;19958;-70
2023/12/11 15:25:35;;;;;;;;;;;;;;;10.96;61.88;99531.19;5034726;28;19941;-70
2023/12/11 15:28:41;;;;;;;;;;;;;;;10.93;62.01;99527.00;5034427;28;19920;-70
2023/12/11 15:32:10;;;;;;;;;;;;;;;10.87;62.18;99532.66;5034457;28;19986;-69
2023/12/11 15:35:14;;;;;;;;;;;;;;;10.84;62.52;99539.88;5034140;28;19971;-69
2023/12/11 15:38:18;;;;;;;;;;;;;;;10.85;63.10;99547.63;5034402;28;19920;-70
2023/12/11 15:41:21;;;;;;;;;;;;;;;10.83;62.55;99554.75;5034613;28;19975;-68
2023/12/11 15:48:45;;;;;;;;;;;;;;;10.74;62.90;99576.28;5034481;28;20289;-69
2023/12/11 15:51:52;;;;;;;;;;;;;;;10.73;63.45;99592.09;5033971;28;19979;-70
2023/12/11 15:54:56;;;;;;;;;;;;;;;10.67;63.91;99595.94;5033981;28;20296;-71
2023/12/11 15:57:59;;;;;;;;;;;;;;;10.65;64.08;99598.66;5034193;28;20394;-69
2023/12/11 16:01:06;;;;;;;;;;;;;;;10.71;64.15;99613.09;5034228;28;19920;-68
2023/12/11 16:04:09;;;;;;;;;;;;;;;10.65;64.55;99613.50;5033742;28;19920;-68
2023/12/11 16:07:19;;;;;;;;;;;;;;;10.63;64.81;99625.88;5033328;28;19920;-67
2023/12/11 16:10:30;;;;;;;;;;;;;;;10.57;65.75;99624.47;5033827;28;19971;-69
2023/12/11 16:20:08;;;;;;;;;;;;;;;10.44;66.64;99639.31;5104005;23;19923;-72
2023/12/11 16:23:15;;;;;;;;;;;;;;;10.39;66.84;99630.91;4896934;29;19922;-70
2023/12/11 16:26:29;;;;;;;;;;;;;;;10.41;66.66;99637.72;4855287;29;20304;-71
2023/12/11 16:29:36;;;;;;;;;;;;;;;10.40;66.81;99636.06;4871505;29;19975;-70
2023/12/11 16:32:39;;;;;;;;;;;;;;;10.41;66.87;99642.97;4876629;29;20016;-70
2023/12/11 16:36:09;;;;;;;;;;;;;;;10.45;66.82;99649.66;4879473;29;20015;-70
2023/12/11 16:39:12;;;;;;;;;;;;;;;10.34;67.47;99654.75;4871974;29;19923;-70
2023/12/11 16:42:15;;;;;;;;;;;;;;;10.29;67.92;99656.81;4873351;29;19971;-70
2023/12/11 16:45:19;;;;;;;;;;;;;;;10.23;68.64;99665.00;4873915;29;19972;-71
2023/12/11 16:48:23;;;;;;;;;;;;;;;10.20;69.21;99662.59;4874283;29;19922;-70
2023/12/11 16:51:25;;;;;;;;;;;;;;;10.20;69.28;99663.44;4860911;29;19968;-71
2023/12/11 16:54:28;;;;;;;;;;;;;;;10.16;69.57;99674.19;4868920;29;20023;-70
2023/12/11 16:57:31;;;;;;;;;;;;;;;10.15;70.21;99672.53;4875397;29;20665;-70
2023/12/11 17:00:34;;;;;;;;;;;;;;;10.16;69.95;99675.03;4875272;29;19927;-70
2023/12/11 17:03:37;;;;;;;;;;;;;;;10.25;70.06;99673.59;4879192;29;19974;-70